sensor_id;sensor_type;location;lat;lon;timestamp;P1;durP1;ratioP1;P2;durP2;ratioP2
40951;SDS011;26682;51.660;19.338;2022-11-20T00:00:04;46.60;;;26.63;;
40951;SDS011;26682;51.660;19.338;2022-11-20T00:02:12;50.90;;;26.60;;
40951;SDS011;26682;51.660;19.338;2022-11-20T00:03:59;42.50;;;24.58;;
40951;SDS011;26682;51.660;19.338;2022-11-20T00:05:46;47.38;;;24.42;;
40951;SDS011;26682;51.660;19.338;2022-11-20T00:07:34;51.00;;;27.13;;
40951;SDS011;26682;51.660;19.338;2022-11-20T00:09:21;49.50;;;25.35;;
40951;SDS011;26682;51.660;19.338;2022-11-20T00:11:09;44.05;;;24.80;;
40951;SDS011;26682;51.660;19.338;2022-11-20T00:13:02;45.00;;;23.95;;
40951;SDS011;26682;51.660;19.338;2022-11-20T00:14:50;56.28;;;28.88;;
40951;SDS011;26682;51.660;19.338;2022-11-20T00:16:37;44.17;;;24.70;;
40951;SDS011;26682;51.660;19.338;2022-11-20T00:18:24;44.50;;;26.40;;
40951;SDS011;26682;51.660;19.338;2022-11-20T00:20:12;46.17;;;24.58;;
40951;SDS011;26682;51.660;19.338;2022-11-20T00:21:59;43.70;;;25.05;;
40951;SDS011;26682;51.660;19.338;2022-11-20T00:23:47;43.42;;;24.80;;
40951;SDS011;26682;51.660;19.338;2022-11-20T00:25:35;46.88;;;26.52;;
40951;SDS011;26682;51.660;19.338;2022-11-20T00:27:22;38.13;;;20.33;;
40951;SDS011;26682;51.660;19.338;2022-11-20T00:29:09;52.58;;;27.88;;
40951;SDS011;26682;51.660;19.338;2022-11-20T00:31:01;45.40;;;26.23;;
40951;SDS011;26682;51.660;19.338;2022-11-20T00:32:49;47.53;;;27.45;;
40951;SDS011;26682;51.660;19.338;2022-11-20T00:34:36;51.65;;;28.23;;
40951;SDS011;26682;51.660;19.338;2022-11-20T00:36:26;53.72;;;27.48;;
40951;SDS011;26682;51.660;19.338;2022-11-20T00:38:14;47.15;;;26.67;;
40951;SDS011;26682;51.660;19.338;2022-11-20T00:40:01;49.53;;;26.70;;
40951;SDS011;26682;51.660;19.338;2022-11-20T00:41:49;50.80;;;28.02;;
40951;SDS011;26682;51.660;19.338;2022-11-20T00:43:36;60.47;;;29.48;;
40951;SDS011;26682;51.660;19.338;2022-11-20T00:45:24;50.88;;;26.58;;
40951;SDS011;26682;51.660;19.338;2022-11-20T00:47:11;60.80;;;29.23;;
40951;SDS011;26682;51.660;19.338;2022-11-20T00:48:58;52.57;;;28.10;;
40951;SDS011;26682;51.660;19.338;2022-11-20T00:50:45;58.67;;;29.90;;
40951;SDS011;26682;51.660;19.338;2022-11-20T00:52:32;59.53;;;28.85;;
40951;SDS011;26682;51.660;19.338;2022-11-20T00:54:19;58.50;;;30.47;;
40951;SDS011;26682;51.660;19.338;2022-11-20T00:56:08;60.90;;;30.17;;
40951;SDS011;26682;51.660;19.338;2022-11-20T00:57:57;61.22;;;31.80;;
40951;SDS011;26682;51.660;19.338;2022-11-20T00:59:49;61.45;;;32.88;;
40951;SDS011;26682;51.660;19.338;2022-11-20T01:01:36;67.50;;;32.93;;
40951;SDS011;26682;51.660;19.338;2022-11-20T01:03:24;68.15;;;32.55;;
40951;SDS011;26682;51.660;19.338;2022-11-20T01:05:12;55.40;;;29.58;;
40951;SDS011;26682;51.660;19.338;2022-11-20T01:06:59;53.00;;;29.08;;
40951;SDS011;26682;51.660;19.338;2022-11-20T01:08:47;52.00;;;30.30;;
40951;SDS011;26682;51.660;19.338;2022-11-20T01:10:36;55.63;;;30.80;;
40951;SDS011;26682;51.660;19.338;2022-11-20T01:12:23;55.63;;;29.58;;
40951;SDS011;26682;51.660;19.338;2022-11-20T01:14:11;53.38;;;28.83;;
40951;SDS011;26682;51.660;19.338;2022-11-20T01:16:08;52.78;;;28.98;;
40951;SDS011;26682;51.660;19.338;2022-11-20T01:18:00;49.00;;;28.27;;
40951;SDS011;26682;51.660;19.338;2022-11-20T01:19:50;42.28;;;22.83;;
40951;SDS011;26682;51.660;19.338;2022-11-20T01:21:38;56.58;;;29.10;;
40951;SDS011;26682;51.660;19.338;2022-11-20T01:23:27;55.78;;;29.02;;
40951;SDS011;26682;51.660;19.338;2022-11-20T01:25:17;54.15;;;28.98;;
40951;SDS011;26682;51.660;19.338;2022-11-20T01:27:04;60.27;;;30.47;;
40951;SDS011;26682;51.660;19.338;2022-11-20T01:28:52;54.25;;;30.38;;
40951;SDS011;26682;51.660;19.338;2022-11-20T01:30:40;54.53;;;30.00;;
40951;SDS011;26682;51.660;19.338;2022-11-20T01:32:27;59.43;;;30.20;;
40951;SDS011;26682;51.660;19.338;2022-11-20T01:34:15;55.65;;;30.23;;
40951;SDS011;26682;51.660;19.338;2022-11-20T01:36:05;52.60;;;29.75;;
40951;SDS011;26682;51.660;19.338;2022-11-20T01:37:53;59.30;;;30.67;;
40951;SDS011;26682;51.660;19.338;2022-11-20T01:39:40;58.60;;;31.55;;
40951;SDS011;26682;51.660;19.338;2022-11-20T01:41:29;58.58;;;31.88;;
40951;SDS011;26682;51.660;19.338;2022-11-20T01:43:36;61.10;;;32.45;;
40951;SDS011;26682;51.660;19.338;2022-11-20T01:47:47;57.85;;;31.60;;
40951;SDS011;26682;51.660;19.338;2022-11-20T01:49:39;54.33;;;29.42;;
40951;SDS011;26682;51.660;19.338;2022-11-20T01:51:33;51.47;;;28.67;;
40951;SDS011;26682;51.660;19.338;2022-11-20T01:53:28;54.58;;;30.02;;
40951;SDS011;26682;51.660;19.338;2022-11-20T01:55:21;52.42;;;28.50;;
40951;SDS011;26682;51.660;19.338;2022-11-20T01:57:12;59.60;;;31.65;;
40951;SDS011;26682;51.660;19.338;2022-11-20T01:59:01;58.95;;;31.58;;
40951;SDS011;26682;51.660;19.338;2022-11-20T02:00:50;58.20;;;31.88;;
40951;SDS011;26682;51.660;19.338;2022-11-20T02:02:38;59.63;;;31.23;;
40951;SDS011;26682;51.660;19.338;2022-11-20T02:04:29;59.10;;;31.58;;
40951;SDS011;26682;51.660;19.338;2022-11-20T02:06:18;59.15;;;30.45;;
40951;SDS011;26682;51.660;19.338;2022-11-20T02:08:10;59.17;;;31.25;;
40951;SDS011;26682;51.660;19.338;2022-11-20T02:09:58;60.40;;;31.58;;
40951;SDS011;26682;51.660;19.338;2022-11-20T02:11:45;61.30;;;32.70;;
40951;SDS011;26682;51.660;19.338;2022-11-20T02:13:33;59.83;;;30.83;;
40951;SDS011;26682;51.660;19.338;2022-11-20T02:15:29;60.08;;;30.02;;
40951;SDS011;26682;51.660;19.338;2022-11-20T02:17:18;60.17;;;31.15;;
40951;SDS011;26682;51.660;19.338;2022-11-20T02:19:07;57.70;;;29.80;;
40951;SDS011;26682;51.660;19.338;2022-11-20T02:21:06;58.58;;;30.80;;
40951;SDS011;26682;51.660;19.338;2022-11-20T02:23:00;56.83;;;30.42;;
40951;SDS011;26682;51.660;19.338;2022-11-20T02:24:51;61.33;;;34.53;;
40951;SDS011;26682;51.660;19.338;2022-11-20T02:26:46;57.83;;;33.08;;
40951;SDS011;26682;51.660;19.338;2022-11-20T02:28:37;60.92;;;31.92;;
40951;SDS011;26682;51.660;19.338;2022-11-20T02:30:25;55.63;;;32.45;;
40951;SDS011;26682;51.660;19.338;2022-11-20T02:32:23;63.65;;;32.80;;
40951;SDS011;26682;51.660;19.338;2022-11-20T02:34:15;58.05;;;32.22;;
40951;SDS011;26682;51.660;19.338;2022-11-20T02:36:02;58.35;;;32.25;;
40951;SDS011;26682;51.660;19.338;2022-11-20T02:37:50;63.38;;;32.80;;
40951;SDS011;26682;51.660;19.338;2022-11-20T02:39:41;58.40;;;31.88;;
40951;SDS011;26682;51.660;19.338;2022-11-20T02:41:36;61.67;;;32.30;;
40951;SDS011;26682;51.660;19.338;2022-11-20T02:43:24;63.28;;;33.50;;
40951;SDS011;26682;51.660;19.338;2022-11-20T02:45:11;65.07;;;33.77;;
40951;SDS011;26682;51.660;19.338;2022-11-20T02:46:58;61.17;;;32.83;;
40951;SDS011;26682;51.660;19.338;2022-11-20T02:48:45;95.95;;;49.42;;
40951;SDS011;26682;51.660;19.338;2022-11-20T02:50:33;72.78;;;37.25;;
40951;SDS011;26682;51.660;19.338;2022-11-20T02:52:22;72.40;;;36.88;;
40951;SDS011;26682;51.660;19.338;2022-11-20T02:55:57;70.63;;;35.60;;
40951;SDS011;26682;51.660;19.338;2022-11-20T02:57:44;64.77;;;35.30;;
40951;SDS011;26682;51.660;19.338;2022-11-20T02:59:31;70.07;;;37.05;;
40951;SDS011;26682;51.660;19.338;2022-11-20T03:01:18;69.83;;;35.10;;
40951;SDS011;26682;51.660;19.338;2022-11-20T03:03:05;71.65;;;35.78;;
40951;SDS011;26682;51.660;19.338;2022-11-20T03:04:53;71.80;;;35.92;;
40951;SDS011;26682;51.660;19.338;2022-11-20T03:06:40;69.45;;;35.22;;
40951;SDS011;26682;51.660;19.338;2022-11-20T03:08:27;70.18;;;35.05;;
40951;SDS011;26682;51.660;19.338;2022-11-20T03:10:15;62.83;;;34.63;;
40951;SDS011;26682;51.660;19.338;2022-11-20T03:12:02;68.50;;;36.42;;
40951;SDS011;26682;51.660;19.338;2022-11-20T03:13:49;63.47;;;35.22;;
40951;SDS011;26682;51.660;19.338;2022-11-20T03:15:36;66.90;;;34.78;;
40951;SDS011;26682;51.660;19.338;2022-11-20T03:17:24;67.75;;;35.28;;
40951;SDS011;26682;51.660;19.338;2022-11-20T03:19:11;65.30;;;36.78;;
40951;SDS011;26682;51.660;19.338;2022-11-20T03:20:58;68.50;;;36.80;;
40951;SDS011;26682;51.660;19.338;2022-11-20T03:22:46;70.07;;;36.38;;
40951;SDS011;26682;51.660;19.338;2022-11-20T03:24:33;52.92;;;28.02;;
40951;SDS011;26682;51.660;19.338;2022-11-20T03:26:22;67.63;;;37.75;;
40951;SDS011;26682;51.660;19.338;2022-11-20T03:28:10;68.68;;;37.03;;
40951;SDS011;26682;51.660;19.338;2022-11-20T03:29:57;56.97;;;27.52;;
40951;SDS011;26682;51.660;19.338;2022-11-20T03:31:45;75.18;;;37.85;;
40951;SDS011;26682;51.660;19.338;2022-11-20T03:33:32;71.43;;;36.93;;
40951;SDS011;26682;51.660;19.338;2022-11-20T03:35:19;72.07;;;37.43;;
40951;SDS011;26682;51.660;19.338;2022-11-20T03:37:06;75.30;;;38.42;;
40951;SDS011;26682;51.660;19.338;2022-11-20T03:38:54;65.93;;;36.45;;
40951;SDS011;26682;51.660;19.338;2022-11-20T03:40:42;74.60;;;38.17;;
40951;SDS011;26682;51.660;19.338;2022-11-20T03:42:29;74.53;;;37.95;;
40951;SDS011;26682;51.660;19.338;2022-11-20T03:44:31;76.63;;;39.00;;
40951;SDS011;26682;51.660;19.338;2022-11-20T03:46:18;63.87;;;31.60;;
40951;SDS011;26682;51.660;19.338;2022-11-20T03:49:53;77.13;;;37.15;;
40951;SDS011;26682;51.660;19.338;2022-11-20T03:51:40;72.38;;;37.67;;
40951;SDS011;26682;51.660;19.338;2022-11-20T03:53:27;59.47;;;29.20;;
40951;SDS011;26682;51.660;19.338;2022-11-20T03:55:15;75.15;;;38.03;;
40951;SDS011;26682;51.660;19.338;2022-11-20T03:57:02;80.88;;;38.33;;
40951;SDS011;26682;51.660;19.338;2022-11-20T03:58:49;75.20;;;37.05;;
40951;SDS011;26682;51.660;19.338;2022-11-20T04:00:37;70.13;;;35.35;;
40951;SDS011;26682;51.660;19.338;2022-11-20T04:02:24;76.38;;;37.45;;
40951;SDS011;26682;51.660;19.338;2022-11-20T04:04:11;71.60;;;37.25;;
40951;SDS011;26682;51.660;19.338;2022-11-20T04:06:02;79.17;;;38.73;;
40951;SDS011;26682;51.660;19.338;2022-11-20T04:07:54;79.20;;;38.35;;
40951;SDS011;26682;51.660;19.338;2022-11-20T04:09:42;58.33;;;28.20;;
40951;SDS011;26682;51.660;19.338;2022-11-20T04:11:30;76.40;;;39.00;;
40951;SDS011;26682;51.660;19.338;2022-11-20T04:13:18;77.72;;;37.90;;
40951;SDS011;26682;51.660;19.338;2022-11-20T04:15:06;72.85;;;37.95;;
40951;SDS011;26682;51.660;19.338;2022-11-20T04:16:53;73.50;;;36.90;;
40951;SDS011;26682;51.660;19.338;2022-11-20T04:18:40;80.45;;;39.20;;
40951;SDS011;26682;51.660;19.338;2022-11-20T04:20:27;77.13;;;39.30;;
40951;SDS011;26682;51.660;19.338;2022-11-20T04:22:14;75.77;;;39.27;;
40951;SDS011;26682;51.660;19.338;2022-11-20T04:24:02;73.70;;;38.95;;
40951;SDS011;26682;51.660;19.338;2022-11-20T04:25:49;74.18;;;36.88;;
40951;SDS011;26682;51.660;19.338;2022-11-20T04:27:36;59.37;;;28.20;;
40951;SDS011;26682;51.660;19.338;2022-11-20T04:29:23;71.50;;;37.83;;
40951;SDS011;26682;51.660;19.338;2022-11-20T04:31:17;76.43;;;38.80;;
40951;SDS011;26682;51.660;19.338;2022-11-20T04:33:08;73.82;;;37.28;;
40951;SDS011;26682;51.660;19.338;2022-11-20T04:34:55;70.88;;;37.17;;
40951;SDS011;26682;51.660;19.338;2022-11-20T04:36:42;79.20;;;39.00;;
40951;SDS011;26682;51.660;19.338;2022-11-20T04:38:29;81.25;;;38.15;;
40951;SDS011;26682;51.660;19.338;2022-11-20T04:40:17;83.03;;;38.88;;
40951;SDS011;26682;51.660;19.338;2022-11-20T04:42:04;72.75;;;38.35;;
40951;SDS011;26682;51.660;19.338;2022-11-20T04:44:10;71.20;;;37.15;;
40951;SDS011;26682;51.660;19.338;2022-11-20T04:45:57;76.65;;;39.17;;
40951;SDS011;26682;51.660;19.338;2022-11-20T04:47:45;79.63;;;40.08;;
40951;SDS011;26682;51.660;19.338;2022-11-20T04:49:32;62.03;;;29.10;;
40951;SDS011;26682;51.660;19.338;2022-11-20T04:51:20;85.80;;;40.33;;
40951;SDS011;26682;51.660;19.338;2022-11-20T04:53:08;81.00;;;41.05;;
40951;SDS011;26682;51.660;19.338;2022-11-20T04:54:55;84.65;;;40.05;;
40951;SDS011;26682;51.660;19.338;2022-11-20T04:56:42;77.90;;;39.55;;
40951;SDS011;26682;51.660;19.338;2022-11-20T04:58:30;67.75;;;36.30;;
40951;SDS011;26682;51.660;19.338;2022-11-20T05:00:18;69.32;;;38.13;;
40951;SDS011;26682;51.660;19.338;2022-11-20T05:02:05;72.03;;;37.85;;
40951;SDS011;26682;51.660;19.338;2022-11-20T05:03:52;72.15;;;35.17;;
40951;SDS011;26682;51.660;19.338;2022-11-20T05:05:39;54.03;;;28.33;;
40951;SDS011;26682;51.660;19.338;2022-11-20T05:07:26;66.07;;;34.67;;
40951;SDS011;26682;51.660;19.338;2022-11-20T05:09:14;69.25;;;35.90;;
40951;SDS011;26682;51.660;19.338;2022-11-20T05:11:08;51.10;;;27.50;;
40951;SDS011;26682;51.660;19.338;2022-11-20T05:12:57;70.00;;;35.63;;
40951;SDS011;26682;51.660;19.338;2022-11-20T05:14:44;74.20;;;34.85;;
40951;SDS011;26682;51.660;19.338;2022-11-20T05:16:33;70.30;;;36.22;;
40951;SDS011;26682;51.660;19.338;2022-11-20T05:18:21;66.25;;;35.95;;
40951;SDS011;26682;51.660;19.338;2022-11-20T05:20:09;71.15;;;36.80;;
40951;SDS011;26682;51.660;19.338;2022-11-20T05:23:44;48.80;;;25.50;;
40951;SDS011;26682;51.660;19.338;2022-11-20T05:25:32;68.05;;;33.08;;
40951;SDS011;26682;51.660;19.338;2022-11-20T05:27:19;64.13;;;33.60;;
40951;SDS011;26682;51.660;19.338;2022-11-20T05:29:08;69.43;;;34.80;;
40951;SDS011;26682;51.660;19.338;2022-11-20T05:31:03;68.50;;;35.05;;
40951;SDS011;26682;51.660;19.338;2022-11-20T05:32:55;70.25;;;35.05;;
40951;SDS011;26682;51.660;19.338;2022-11-20T05:34:42;70.50;;;34.63;;
40951;SDS011;26682;51.660;19.338;2022-11-20T05:36:29;70.40;;;33.72;;
40951;SDS011;26682;51.660;19.338;2022-11-20T05:38:16;64.50;;;34.97;;
40951;SDS011;26682;51.660;19.338;2022-11-20T05:40:03;68.80;;;35.13;;
40951;SDS011;26682;51.660;19.338;2022-11-20T05:43:58;66.22;;;33.53;;
40951;SDS011;26682;51.660;19.338;2022-11-20T05:45:54;71.78;;;33.80;;
40951;SDS011;26682;51.660;19.338;2022-11-20T05:47:42;68.75;;;35.35;;
40951;SDS011;26682;51.660;19.338;2022-11-20T05:49:30;74.88;;;35.88;;
40951;SDS011;26682;51.660;19.338;2022-11-20T05:51:17;75.68;;;35.55;;
40951;SDS011;26682;51.660;19.338;2022-11-20T05:53:05;70.88;;;36.53;;
40951;SDS011;26682;51.660;19.338;2022-11-20T05:54:52;67.65;;;36.08;;
40951;SDS011;26682;51.660;19.338;2022-11-20T05:56:40;67.32;;;35.17;;
40951;SDS011;26682;51.660;19.338;2022-11-20T05:58:27;67.03;;;35.67;;
40951;SDS011;26682;51.660;19.338;2022-11-20T06:02:02;67.72;;;35.00;;
40951;SDS011;26682;51.660;19.338;2022-11-20T06:03:52;73.97;;;36.90;;
40951;SDS011;26682;51.660;19.338;2022-11-20T06:05:40;73.57;;;38.53;;
40951;SDS011;26682;51.660;19.338;2022-11-20T06:07:27;71.20;;;36.72;;
40951;SDS011;26682;51.660;19.338;2022-11-20T06:09:15;74.32;;;38.30;;
40951;SDS011;26682;51.660;19.338;2022-11-20T06:11:03;71.60;;;37.55;;
40951;SDS011;26682;51.660;19.338;2022-11-20T06:12:56;75.32;;;37.63;;
40951;SDS011;26682;51.660;19.338;2022-11-20T06:14:44;74.18;;;38.05;;
40951;SDS011;26682;51.660;19.338;2022-11-20T06:16:31;76.68;;;38.85;;
40951;SDS011;26682;51.660;19.338;2022-11-20T06:18:19;69.88;;;37.25;;
40951;SDS011;26682;51.660;19.338;2022-11-20T06:21:54;80.93;;;40.30;;
40951;SDS011;26682;51.660;19.338;2022-11-20T06:23:41;99.07;;;47.05;;
40951;SDS011;26682;51.660;19.338;2022-11-20T06:25:29;102.22;;;48.95;;
40951;SDS011;26682;51.660;19.338;2022-11-20T06:27:16;102.45;;;50.58;;
40951;SDS011;26682;51.660;19.338;2022-11-20T06:29:03;93.47;;;48.35;;
40951;SDS011;26682;51.660;19.338;2022-11-20T06:30:50;89.20;;;45.55;;
40951;SDS011;26682;51.660;19.338;2022-11-20T06:32:37;88.97;;;45.53;;
40951;SDS011;26682;51.660;19.338;2022-11-20T06:34:25;87.10;;;46.65;;
40951;SDS011;26682;51.660;19.338;2022-11-20T06:36:13;84.25;;;43.78;;
40951;SDS011;26682;51.660;19.338;2022-11-20T06:38:01;88.38;;;44.88;;
40951;SDS011;26682;51.660;19.338;2022-11-20T06:39:48;86.60;;;45.90;;
40951;SDS011;26682;51.660;19.338;2022-11-20T06:41:35;88.93;;;45.08;;
40951;SDS011;26682;51.660;19.338;2022-11-20T06:43:23;88.32;;;46.53;;
40951;SDS011;26682;51.660;19.338;2022-11-20T06:45:10;90.82;;;46.58;;
40951;SDS011;26682;51.660;19.338;2022-11-20T06:46:58;87.82;;;46.95;;
40951;SDS011;26682;51.660;19.338;2022-11-20T06:48:46;88.65;;;45.95;;
40951;SDS011;26682;51.660;19.338;2022-11-20T06:50:33;91.10;;;45.83;;
40951;SDS011;26682;51.660;19.338;2022-11-20T06:52:21;90.40;;;44.85;;
40951;SDS011;26682;51.660;19.338;2022-11-20T06:54:08;80.53;;;43.53;;
40951;SDS011;26682;51.660;19.338;2022-11-20T06:55:55;88.38;;;44.53;;
40951;SDS011;26682;51.660;19.338;2022-11-20T06:57:44;82.07;;;43.83;;
40951;SDS011;26682;51.660;19.338;2022-11-20T06:59:31;85.93;;;45.22;;
40951;SDS011;26682;51.660;19.338;2022-11-20T07:01:18;87.20;;;44.60;;
40951;SDS011;26682;51.660;19.338;2022-11-20T07:03:06;87.10;;;44.05;;
40951;SDS011;26682;51.660;19.338;2022-11-20T07:04:55;86.35;;;44.03;;
40951;SDS011;26682;51.660;19.338;2022-11-20T07:06:42;91.63;;;46.50;;
40951;SDS011;26682;51.660;19.338;2022-11-20T07:08:29;86.07;;;44.42;;
40951;SDS011;26682;51.660;19.338;2022-11-20T07:10:17;83.13;;;42.55;;
40951;SDS011;26682;51.660;19.338;2022-11-20T07:12:04;80.18;;;42.92;;
40951;SDS011;26682;51.660;19.338;2022-11-20T07:13:53;90.00;;;45.05;;
40951;SDS011;26682;51.660;19.338;2022-11-20T07:15:40;88.60;;;43.50;;
40951;SDS011;26682;51.660;19.338;2022-11-20T07:17:27;91.80;;;46.03;;
40951;SDS011;26682;51.660;19.338;2022-11-20T07:19:14;86.18;;;44.55;;
40951;SDS011;26682;51.660;19.338;2022-11-20T07:21:02;84.80;;;44.38;;
40951;SDS011;26682;51.660;19.338;2022-11-20T07:22:55;81.78;;;43.85;;
40951;SDS011;26682;51.660;19.338;2022-11-20T07:24:43;89.10;;;44.47;;
40951;SDS011;26682;51.660;19.338;2022-11-20T07:26:31;81.72;;;43.42;;
40951;SDS011;26682;51.660;19.338;2022-11-20T07:28:18;85.20;;;44.55;;
40951;SDS011;26682;51.660;19.338;2022-11-20T07:30:06;85.38;;;44.88;;
40951;SDS011;26682;51.660;19.338;2022-11-20T07:31:53;86.00;;;44.53;;
40951;SDS011;26682;51.660;19.338;2022-11-20T07:33:42;89.85;;;45.97;;
40951;SDS011;26682;51.660;19.338;2022-11-20T07:35:29;86.20;;;44.70;;
40951;SDS011;26682;51.660;19.338;2022-11-20T07:37:17;82.07;;;43.87;;
40951;SDS011;26682;51.660;19.338;2022-11-20T07:39:04;80.90;;;43.05;;
40951;SDS011;26682;51.660;19.338;2022-11-20T07:40:58;84.10;;;45.78;;
40951;SDS011;26682;51.660;19.338;2022-11-20T07:42:51;85.28;;;44.40;;
40951;SDS011;26682;51.660;19.338;2022-11-20T07:44:39;81.85;;;39.80;;
40951;SDS011;26682;51.660;19.338;2022-11-20T07:46:27;82.90;;;41.92;;
40951;SDS011;26682;51.660;19.338;2022-11-20T07:48:14;88.45;;;43.28;;
40951;SDS011;26682;51.660;19.338;2022-11-20T07:50:02;91.63;;;46.25;;
40951;SDS011;26682;51.660;19.338;2022-11-20T07:51:50;81.78;;;42.05;;
40951;SDS011;26682;51.660;19.338;2022-11-20T07:53:37;86.30;;;43.28;;
40951;SDS011;26682;51.660;19.338;2022-11-20T07:55:24;85.95;;;43.70;;
40951;SDS011;26682;51.660;19.338;2022-11-20T07:57:12;87.78;;;44.20;;
40951;SDS011;26682;51.660;19.338;2022-11-20T07:58:59;58.17;;;31.85;;
40951;SDS011;26682;51.660;19.338;2022-11-20T08:00:46;76.00;;;41.00;;
40951;SDS011;26682;51.660;19.338;2022-11-20T08:02:36;71.90;;;36.13;;
40951;SDS011;26682;51.660;19.338;2022-11-20T08:04:25;74.72;;;37.60;;
40951;SDS011;26682;51.660;19.338;2022-11-20T08:06:12;72.32;;;38.15;;
40951;SDS011;26682;51.660;19.338;2022-11-20T08:08:01;69.50;;;39.03;;
40951;SDS011;26682;51.660;19.338;2022-11-20T08:09:48;68.37;;;37.03;;
40951;SDS011;26682;51.660;19.338;2022-11-20T08:11:35;69.00;;;37.17;;
40951;SDS011;26682;51.660;19.338;2022-11-20T08:13:41;65.68;;;36.60;;
40951;SDS011;26682;51.660;19.338;2022-11-20T08:15:48;66.97;;;36.67;;
40951;SDS011;26682;51.660;19.338;2022-11-20T08:17:39;69.07;;;36.10;;
40951;SDS011;26682;51.660;19.338;2022-11-20T08:19:26;70.10;;;36.22;;
40951;SDS011;26682;51.660;19.338;2022-11-20T08:21:14;66.80;;;34.28;;
40951;SDS011;26682;51.660;19.338;2022-11-20T08:23:02;70.40;;;36.10;;
40951;SDS011;26682;51.660;19.338;2022-11-20T08:24:52;66.65;;;35.50;;
40951;SDS011;26682;51.660;19.338;2022-11-20T08:26:39;70.82;;;35.22;;
40951;SDS011;26682;51.660;19.338;2022-11-20T08:32:02;64.55;;;33.08;;
40951;SDS011;26682;51.660;19.338;2022-11-20T08:33:57;86.70;;;45.67;;
40951;SDS011;26682;51.660;19.338;2022-11-20T08:35:45;64.20;;;32.83;;
40951;SDS011;26682;51.660;19.338;2022-11-20T08:37:32;69.00;;;36.97;;
40951;SDS011;26682;51.660;19.338;2022-11-20T08:39:19;69.20;;;36.60;;
40951;SDS011;26682;51.660;19.338;2022-11-20T08:43:13;53.22;;;29.23;;
40951;SDS011;26682;51.660;19.338;2022-11-20T08:45:00;53.42;;;29.02;;
40951;SDS011;26682;51.660;19.338;2022-11-20T08:46:48;50.28;;;27.75;;
40951;SDS011;26682;51.660;19.338;2022-11-20T08:48:35;53.60;;;28.77;;
40951;SDS011;26682;51.660;19.338;2022-11-20T08:50:23;53.72;;;29.88;;
40951;SDS011;26682;51.660;19.338;2022-11-20T08:52:10;52.00;;;29.77;;
40951;SDS011;26682;51.660;19.338;2022-11-20T08:53:57;61.88;;;34.30;;
40951;SDS011;26682;51.660;19.338;2022-11-20T08:55:44;61.92;;;34.47;;
40951;SDS011;26682;51.660;19.338;2022-11-20T08:57:32;53.35;;;29.80;;
40951;SDS011;26682;51.660;19.338;2022-11-20T08:59:20;57.90;;;32.13;;
40951;SDS011;26682;51.660;19.338;2022-11-20T09:01:27;50.85;;;27.60;;
40951;SDS011;26682;51.660;19.338;2022-11-20T09:03:16;53.28;;;28.48;;
40951;SDS011;26682;51.660;19.338;2022-11-20T09:05:03;44.65;;;26.33;;
40951;SDS011;26682;51.660;19.338;2022-11-20T09:06:50;51.50;;;28.17;;
40951;SDS011;26682;51.660;19.338;2022-11-20T09:10:26;52.90;;;27.30;;
40951;SDS011;26682;51.660;19.338;2022-11-20T09:12:14;72.15;;;39.38;;
40951;SDS011;26682;51.660;19.338;2022-11-20T09:14:01;51.75;;;29.13;;
40951;SDS011;26682;51.660;19.338;2022-11-20T09:15:53;52.50;;;30.27;;
40951;SDS011;26682;51.660;19.338;2022-11-20T09:17:41;51.65;;;29.58;;
40951;SDS011;26682;51.660;19.338;2022-11-20T09:19:29;53.28;;;28.73;;
40951;SDS011;26682;51.660;19.338;2022-11-20T09:21:23;46.25;;;27.27;;
40951;SDS011;26682;51.660;19.338;2022-11-20T09:23:11;46.63;;;27.35;;
40951;SDS011;26682;51.660;19.338;2022-11-20T09:24:58;46.05;;;26.88;;
40951;SDS011;26682;51.660;19.338;2022-11-20T09:26:45;46.20;;;27.77;;
40951;SDS011;26682;51.660;19.338;2022-11-20T09:28:32;46.53;;;26.92;;
40951;SDS011;26682;51.660;19.338;2022-11-20T09:30:20;44.15;;;26.40;;
40951;SDS011;26682;51.660;19.338;2022-11-20T09:32:07;48.27;;;27.33;;
40951;SDS011;26682;51.660;19.338;2022-11-20T09:33:54;49.88;;;30.67;;
40951;SDS011;26682;51.660;19.338;2022-11-20T09:35:42;51.35;;;29.17;;
40951;SDS011;26682;51.660;19.338;2022-11-20T09:37:30;49.72;;;27.88;;
40951;SDS011;26682;51.660;19.338;2022-11-20T09:39:22;58.40;;;30.23;;
40951;SDS011;26682;51.660;19.338;2022-11-20T09:47:35;53.05;;;27.45;;
40951;SDS011;26682;51.660;19.338;2022-11-20T09:49:53;58.63;;;30.35;;
40951;SDS011;26682;51.660;19.338;2022-11-20T09:52:19;49.30;;;27.90;;
40951;SDS011;26682;51.660;19.338;2022-11-20T09:56:06;87.82;;;40.53;;
40951;SDS011;26682;51.660;19.338;2022-11-20T09:57:56;65.43;;;35.35;;
40951;SDS011;26682;51.660;19.338;2022-11-20T09:59:46;60.60;;;33.00;;
40951;SDS011;26682;51.660;19.338;2022-11-20T10:01:39;52.20;;;29.83;;
40951;SDS011;26682;51.660;19.338;2022-11-20T10:03:36;49.75;;;28.83;;
40951;SDS011;26682;51.660;19.338;2022-11-20T10:05:40;59.78;;;35.45;;
40951;SDS011;26682;51.660;19.338;2022-11-20T10:07:44;59.45;;;32.63;;
40951;SDS011;26682;51.660;19.338;2022-11-20T10:09:56;54.47;;;29.95;;
40951;SDS011;26682;51.660;19.338;2022-11-20T10:25:39;49.55;;;27.67;;
40951;SDS011;26682;51.660;19.338;2022-11-20T10:32:00;55.33;;;30.27;;
40951;SDS011;26682;51.660;19.338;2022-11-20T10:33:49;40.85;;;24.23;;
40951;SDS011;26682;51.660;19.338;2022-11-20T10:36:05;47.45;;;28.05;;
40951;SDS011;26682;51.660;19.338;2022-11-20T10:39:58;41.92;;;23.77;;
40951;SDS011;26682;51.660;19.338;2022-11-20T10:42:08;40.28;;;23.80;;
40951;SDS011;26682;51.660;19.338;2022-11-20T10:46:12;33.53;;;19.52;;
40951;SDS011;26682;51.660;19.338;2022-11-20T10:48:15;43.97;;;24.58;;
40951;SDS011;26682;51.660;19.338;2022-11-20T10:50:04;39.03;;;23.05;;
40951;SDS011;26682;51.660;19.338;2022-11-20T10:54:29;39.33;;;22.98;;
40951;SDS011;26682;51.660;19.338;2022-11-20T10:56:40;39.38;;;22.55;;
40951;SDS011;26682;51.660;19.338;2022-11-20T10:58:38;40.55;;;22.63;;
40951;SDS011;26682;51.660;19.338;2022-11-20T11:00:39;38.40;;;23.08;;
40951;SDS011;26682;51.660;19.338;2022-11-20T11:02:34;38.22;;;22.38;;
40951;SDS011;26682;51.660;19.338;2022-11-20T11:04:57;41.30;;;23.20;;
40951;SDS011;26682;51.660;19.338;2022-11-20T11:06:46;47.63;;;26.55;;
40951;SDS011;26682;51.660;19.338;2022-11-20T11:08:39;42.78;;;22.92;;
40951;SDS011;26682;51.660;19.338;2022-11-20T11:12:28;40.80;;;22.23;;
40951;SDS011;26682;51.660;19.338;2022-11-20T11:14:15;38.47;;;22.20;;
40951;SDS011;26682;51.660;19.338;2022-11-20T11:16:03;38.70;;;22.88;;
40951;SDS011;26682;51.660;19.338;2022-11-20T11:17:51;37.55;;;22.88;;
40951;SDS011;26682;51.660;19.338;2022-11-20T11:19:38;40.58;;;23.10;;
40951;SDS011;26682;51.660;19.338;2022-11-20T11:21:25;39.35;;;22.60;;
40951;SDS011;26682;51.660;19.338;2022-11-20T11:23:22;36.15;;;22.73;;
40951;SDS011;26682;51.660;19.338;2022-11-20T11:25:28;38.83;;;22.00;;
40951;SDS011;26682;51.660;19.338;2022-11-20T11:27:20;34.60;;;21.83;;